sensor_id;sensor_type;location;lat;lon;timestamp;pressure;altitude;pressure_sealevel;temperature;humidity
32735;BME280;19112;51.076;3.706;2023-04-25T00:01:32;101027.19;;;11.38;68.12
32735;BME280;19112;51.076;3.706;2023-04-25T00:04:01;100918.94;;;10.68;68.73
32735;BME280;19112;51.076;3.706;2023-04-25T00:06:32;100918.03;;;10.93;68.61
32735;BME280;19112;51.076;3.706;2023-04-25T00:08:58;101109.09;;;12.02;68.25
32735;BME280;19112;51.076;3.706;2023-04-25T00:11:24;100883.25;;;10.75;68.54
32735;BME280;19112;51.076;3.706;2023-04-25T00:13:50;100983.03;;;11.26;68.73
32735;BME280;19112;51.076;3.706;2023-04-25T00:16:16;100841.19;;;10.46;68.27
32735;BME280;19112;51.076;3.706;2023-04-25T00:18:43;100814.84;;;10.18;67.97
32735;BME280;19112;51.076;3.706;2023-04-25T00:21:09;100973.91;;;10.89;67.88
32735;BME280;19112;51.076;3.706;2023-04-25T00:23:35;100931.69;;;10.58;68.08
32735;BME280;19112;51.076;3.706;2023-04-25T00:26:02;101071.88;;;11.38;68.47
32735;BME280;19112;51.076;3.706;2023-04-25T00:28:28;101032.63;;;11.17;68.45
32735;BME280;19112;51.076;3.706;2023-04-25T00:30:54;101100.84;;;11.66;68.52
32735;BME280;19112;51.076;3.706;2023-04-25T00:33:20;101035.88;;;11.35;68.64
32735;BME280;19112;51.076;3.706;2023-04-25T00:35:46;100836.13;;;10.26;68.92
32735;BME280;19112;51.076;3.706;2023-04-25T00:38:12;100915.25;;;10.63;68.90
32735;BME280;19112;51.076;3.706;2023-04-25T00:40:38;101119.09;;;11.87;69.02
32735;BME280;19112;51.076;3.706;2023-04-25T00:43:04;101039.44;;;11.64;67.81
32735;BME280;19112;51.076;3.706;2023-04-25T00:45:30;100954.78;;;10.93;67.80
32735;BME280;19112;51.076;3.706;2023-04-25T00:47:56;101075.41;;;11.65;68.18
32735;BME280;19112;51.076;3.706;2023-04-25T00:50:23;100914.69;;;10.72;67.76
32735;BME280;19112;51.076;3.706;2023-04-25T00:52:50;101093.25;;;11.74;67.41
32735;BME280;19112;51.076;3.706;2023-04-25T00:55:16;101043.09;;;11.41;67.23
32735;BME280;19112;51.076;3.706;2023-04-25T00:57:42;101045.34;;;11.30;67.83
32735;BME280;19112;51.076;3.706;2023-04-25T01:00:09;101129.72;;;11.89;67.56
32735;BME280;19112;51.076;3.706;2023-04-25T01:02:36;101058.44;;;11.55;66.92
32735;BME280;19112;51.076;3.706;2023-04-25T01:05:03;100703.31;;;9.53;67.08
32735;BME280;19112;51.076;3.706;2023-04-25T01:07:29;100858.31;;;10.35;66.90
32735;BME280;19112;51.076;3.706;2023-04-25T01:09:56;101135.41;;;11.77;67.52
32735;BME280;19112;51.076;3.706;2023-04-25T01:12:23;100885.13;;;10.27;68.01
32735;BME280;19112;51.076;3.706;2023-04-25T01:14:49;100885.94;;;10.24;68.31
32735;BME280;19112;51.076;3.706;2023-04-25T01:17:15;101130.59;;;11.64;68.38
32735;BME280;19112;51.076;3.706;2023-04-25T01:19:42;101132.19;;;11.59;68.79
32735;BME280;19112;51.076;3.706;2023-04-25T01:22:08;101137.03;;;11.72;68.62
32735;BME280;19112;51.076;3.706;2023-04-25T01:24:37;101136.59;;;11.85;67.64
32735;BME280;19112;51.076;3.706;2023-04-25T01:27:03;100946.34;;;10.77;67.67
32735;BME280;19112;51.076;3.706;2023-04-25T01:29:32;100647.97;;;8.94;68.05
32735;BME280;19112;51.076;3.706;2023-04-25T01:31:58;100875.41;;;10.00;67.89
32735;BME280;19112;51.076;3.706;2023-04-25T01:34:25;101015.44;;;10.75;68.34
32735;BME280;19112;51.076;3.706;2023-04-25T01:36:51;100812.72;;;9.58;68.63
32735;BME280;19112;51.076;3.706;2023-04-25T01:39:18;101082.03;;;11.01;69.02
32735;BME280;19112;51.076;3.706;2023-04-25T01:41:45;101148.53;;;11.50;68.96
32735;BME280;19112;51.076;3.706;2023-04-25T01:44:12;100809.03;;;9.53;68.58
32735;BME280;19112;51.076;3.706;2023-04-25T01:46:38;101124.13;;;11.28;67.71
32735;BME280;19112;51.076;3.706;2023-04-25T01:49:03;101029.59;;;10.79;68.31
32735;BME280;19112;51.076;3.706;2023-04-25T01:51:30;101088.75;;;10.93;68.20
32735;BME280;19112;51.076;3.706;2023-04-25T01:53:57;101151.09;;;10.97;68.83
32735;BME280;19112;51.076;3.706;2023-04-25T01:56:23;100936.97;;;9.86;68.96
32735;BME280;19112;51.076;3.706;2023-04-25T01:58:49;100885.69;;;9.70;68.93
32735;BME280;19112;51.076;3.706;2023-04-25T02:01:15;100799.94;;;9.19;69.63
32735;BME280;19112;51.076;3.706;2023-04-25T02:03:41;101023.19;;;10.47;69.83
32735;BME280;19112;51.076;3.706;2023-04-25T02:06:07;100914.34;;;9.89;69.39
32735;BME280;19112;51.076;3.706;2023-04-25T02:08:33;100565.88;;;7.77;68.98
32735;BME280;19112;51.076;3.706;2023-04-25T02:10:59;100909.56;;;9.78;69.05
32735;BME280;19112;51.076;3.706;2023-04-25T02:13:25;101029.69;;;10.57;69.22
32735;BME280;19112;51.076;3.706;2023-04-25T02:15:50;101096.09;;;10.78;69.03
32735;BME280;19112;51.076;3.706;2023-04-25T02:18:16;100938.97;;;9.93;69.50
32735;BME280;19112;51.076;3.706;2023-04-25T02:20:43;100754.69;;;8.77;68.74
32735;BME280;19112;51.076;3.706;2023-04-25T02:23:09;101159.19;;;11.04;68.70
32735;BME280;19112;51.076;3.706;2023-04-25T02:25:35;101011.75;;;10.22;68.52
32735;BME280;19112;51.076;3.706;2023-04-25T02:28:01;101069.06;;;10.57;68.49
32735;BME280;19112;51.076;3.706;2023-04-25T02:30:27;101133.03;;;10.83;69.01
32735;BME280;19112;51.076;3.706;2023-04-25T02:32:53;101104.91;;;10.56;68.82
32735;BME280;19112;51.076;3.706;2023-04-25T02:35:19;101169.28;;;10.93;69.36
32735;BME280;19112;51.076;3.706;2023-04-25T02:37:45;101061.31;;;10.37;69.36
32735;BME280;19112;51.076;3.706;2023-04-25T02:40:11;101163.38;;;10.98;69.33
32735;BME280;19112;51.076;3.706;2023-04-25T02:42:37;101036.09;;;10.18;68.63
32735;BME280;19112;51.076;3.706;2023-04-25T02:45:04;100381.13;;;6.62;68.50
32735;BME280;19112;51.076;3.706;2023-04-25T02:47:30;101111.28;;;10.63;68.10
32735;BME280;19112;51.076;3.706;2023-04-25T02:49:56;101162.19;;;10.90;68.23
32735;BME280;19112;51.076;3.706;2023-04-25T02:52:22;100884.06;;;9.27;67.94
32735;BME280;19112;51.076;3.706;2023-04-25T02:54:47;101167.00;;;10.78;68.47
32735;BME280;19112;51.076;3.706;2023-04-25T02:57:13;101116.00;;;10.49;68.34
32735;BME280;19112;51.076;3.706;2023-04-25T02:59:39;100928.03;;;9.36;68.36
32735;BME280;19112;51.076;3.706;2023-04-25T03:05:11;101171.75;;;10.88;68.38
32735;BME280;19112;51.076;3.706;2023-04-25T03:10:08;101082.72;;;10.03;67.36
32735;BME280;19112;51.076;3.706;2023-04-25T03:12:35;101104.38;;;10.20;67.33
32735;BME280;19112;51.076;3.706;2023-04-25T03:15:00;101048.13;;;9.68;67.68
32735;BME280;19112;51.076;3.706;2023-04-25T03:17:26;101162.31;;;10.47;67.85
32735;BME280;19112;51.076;3.706;2023-04-25T03:19:52;101079.56;;;10.12;67.04
32735;BME280;19112;51.076;3.706;2023-04-25T03:22:18;101173.44;;;10.64;66.72
32735;BME280;19112;51.076;3.706;2023-04-25T03:24:44;101185.38;;;10.33;66.23
32735;BME280;19112;51.076;3.706;2023-04-25T03:27:10;101132.53;;;10.02;66.94
32735;BME280;19112;51.076;3.706;2023-04-25T03:29:35;101099.97;;;9.96;66.44
32735;BME280;19112;51.076;3.706;2023-04-25T03:32:01;101134.16;;;10.00;66.91
32735;BME280;19112;51.076;3.706;2023-04-25T03:34:27;101020.28;;;9.27;66.69
32735;BME280;19112;51.076;3.706;2023-04-25T03:36:53;101194.09;;;10.32;67.14
32735;BME280;19112;51.076;3.706;2023-04-25T03:39:19;101043.34;;;9.58;67.01
32735;BME280;19112;51.076;3.706;2023-04-25T03:41:45;100954.88;;;9.08;66.21
32735;BME280;19112;51.076;3.706;2023-04-25T03:44:11;101187.44;;;10.40;65.77
32735;BME280;19112;51.076;3.706;2023-04-25T03:46:36;101188.38;;;10.42;65.78
32735;BME280;19112;51.076;3.706;2023-04-25T03:49:02;101116.69;;;10.00;65.56
32735;BME280;19112;51.076;3.706;2023-04-25T03:51:28;101109.47;;;9.94;65.80
32735;BME280;19112;51.076;3.706;2023-04-25T03:53:54;101220.06;;;10.47;66.24
32735;BME280;19112;51.076;3.706;2023-04-25T03:56:20;101218.44;;;10.51;65.95
32735;BME280;19112;51.076;3.706;2023-04-25T03:58:46;101149.44;;;10.31;65.71
32735;BME280;19112;51.076;3.706;2023-04-25T04:01:12;101022.16;;;9.52;65.16
32735;BME280;19112;51.076;3.706;2023-04-25T04:03:38;101222.16;;;10.56;65.05
32735;BME280;19112;51.076;3.706;2023-04-25T04:06:05;101123.50;;;9.95;64.68
32735;BME280;19112;51.076;3.706;2023-04-25T04:08:32;101181.41;;;10.22;64.53
32735;BME280;19112;51.076;3.706;2023-04-25T04:10:58;101156.47;;;10.11;65.02
32735;BME280;19112;51.076;3.706;2023-04-25T04:13:26;101169.47;;;10.08;64.68
32735;BME280;19112;51.076;3.706;2023-04-25T04:15:53;101101.47;;;9.69;64.80
32735;BME280;19112;51.076;3.706;2023-04-25T04:18:19;101175.72;;;10.11;64.68
32735;BME280;19112;51.076;3.706;2023-04-25T04:20:45;101215.97;;;10.33;64.52
32735;BME280;19112;51.076;3.706;2023-04-25T04:23:11;101196.25;;;10.21;64.35
32735;BME280;19112;51.076;3.706;2023-04-25T04:25:37;101167.34;;;10.20;64.50
32735;BME280;19112;51.076;3.706;2023-04-25T04:28:03;101225.00;;;10.62;64.63
32735;BME280;19112;51.076;3.706;2023-04-25T04:30:30;101222.13;;;10.78;64.38
32735;BME280;19112;51.076;3.706;2023-04-25T04:32:56;101109.13;;;10.29;63.39
32735;BME280;19112;51.076;3.706;2023-04-25T04:35:23;101150.97;;;10.48;63.65
32735;BME280;19112;51.076;3.706;2023-04-25T04:37:49;101183.41;;;10.72;63.45
32735;BME280;19112;51.076;3.706;2023-04-25T04:40:17;101001.28;;;9.76;63.05
32735;BME280;19112;51.076;3.706;2023-04-25T04:42:44;101145.31;;;10.37;63.20
32735;BME280;19112;51.076;3.706;2023-04-25T04:45:14;101162.31;;;10.47;63.43
32735;BME280;19112;51.076;3.706;2023-04-25T04:47:40;100934.13;;;9.12;62.63
32735;BME280;19112;51.076;3.706;2023-04-25T04:50:08;101120.16;;;10.21;62.68
32735;BME280;19112;51.076;3.706;2023-04-25T04:52:38;100987.59;;;9.40;62.87
32735;BME280;19112;51.076;3.706;2023-04-25T04:55:05;101035.81;;;9.66;62.95
32735;BME280;19112;51.076;3.706;2023-04-25T04:57:32;101000.25;;;9.50;62.85
32735;BME280;19112;51.076;3.706;2023-04-25T04:59:58;101176.72;;;10.58;63.07
32735;BME280;19112;51.076;3.706;2023-04-25T05:02:25;101212.09;;;10.90;62.72
32735;BME280;19112;51.076;3.706;2023-04-25T05:04:51;101099.38;;;10.26;62.75
32735;BME280;19112;51.076;3.706;2023-04-25T05:07:18;101148.75;;;10.59;62.12
32735;BME280;19112;51.076;3.706;2023-04-25T05:09:44;101049.09;;;10.15;62.31
32735;BME280;19112;51.076;3.706;2023-04-25T05:12:10;101214.28;;;11.02;62.74
32735;BME280;19112;51.076;3.706;2023-04-25T05:14:36;101157.69;;;10.64;62.62
32735;BME280;19112;51.076;3.706;2023-04-25T05:17:02;101189.59;;;10.74;62.42
32735;BME280;19112;51.076;3.706;2023-04-25T05:19:31;101187.47;;;10.87;62.59
32735;BME280;19112;51.076;3.706;2023-04-25T05:21:57;101276.06;;;11.39;62.31
32735;BME280;19112;51.076;3.706;2023-04-25T05:24:23;100903.81;;;9.41;61.59
32735;BME280;19112;51.076;3.706;2023-04-25T05:26:49;101247.97;;;11.36;61.78
32735;BME280;19112;51.076;3.706;2023-04-25T05:29:15;101283.00;;;11.61;61.60
32735;BME280;19112;51.076;3.706;2023-04-25T05:31:40;101173.75;;;10.95;61.41
32735;BME280;19112;51.076;3.706;2023-04-25T05:34:06;101217.81;;;11.26;61.54
32735;BME280;19112;51.076;3.706;2023-04-25T05:36:32;101079.81;;;10.40;61.05
32735;BME280;19112;51.076;3.706;2023-04-25T05:38:58;101226.53;;;11.01;59.82
32735;BME280;19112;51.076;3.706;2023-04-25T05:41:24;101181.53;;;10.46;60.11
32735;BME280;19112;51.076;3.706;2023-04-25T05:43:50;101208.47;;;10.64;60.38
32735;BME280;19112;51.076;3.706;2023-04-25T05:46:16;101310.34;;;10.95;59.88
32735;BME280;19112;51.076;3.706;2023-04-25T05:48:45;101077.88;;;9.69;59.49
32735;BME280;19112;51.076;3.706;2023-04-25T05:51:11;101234.06;;;10.70;60.14
32735;BME280;19112;51.076;3.706;2023-04-25T05:53:37;101161.47;;;10.26;60.09
32735;BME280;19112;51.076;3.706;2023-04-25T05:56:03;101275.13;;;10.90;60.02
32735;BME280;19112;51.076;3.706;2023-04-25T05:58:29;101288.75;;;11.02;60.50
32735;BME280;19112;51.076;3.706;2023-04-25T06:00:55;101131.53;;;10.22;60.21
32735;BME280;19112;51.076;3.706;2023-04-25T06:03:21;101152.13;;;10.11;59.00
32735;BME280;19112;51.076;3.706;2023-04-25T06:05:47;101212.34;;;10.29;59.17
32735;BME280;19112;51.076;3.706;2023-04-25T06:08:13;101335.19;;;10.81;59.75
32735;BME280;19112;51.076;3.706;2023-04-25T06:10:39;101293.66;;;10.71;60.33
32735;BME280;19112;51.076;3.706;2023-04-25T06:13:05;101263.22;;;10.76;60.04
32735;BME280;19112;51.076;3.706;2023-04-25T06:15:31;101151.09;;;10.29;59.31
32735;BME280;19112;51.076;3.706;2023-04-25T06:17:59;101295.06;;;11.30;58.73
32735;BME280;19112;51.076;3.706;2023-04-25T06:20:25;101338.59;;;11.46;59.02
32735;BME280;19112;51.076;3.706;2023-04-25T06:22:51;101086.72;;;10.16;58.64
32735;BME280;19112;51.076;3.706;2023-04-25T06:25:18;101269.53;;;11.04;58.16
32735;BME280;19112;51.076;3.706;2023-04-25T06:27:44;101321.22;;;11.27;58.24
32735;BME280;19112;51.076;3.706;2023-04-25T06:30:10;101302.34;;;11.15;58.20
32735;BME280;19112;51.076;3.706;2023-04-25T06:32:38;101244.81;;;10.54;58.14
32735;BME280;19112;51.076;3.706;2023-04-25T06:35:05;101300.41;;;10.87;58.82
32735;BME280;19112;51.076;3.706;2023-04-25T06:37:31;101165.69;;;10.01;58.94
32735;BME280;19112;51.076;3.706;2023-04-25T06:39:57;101255.44;;;10.57;58.82
32735;BME280;19112;51.076;3.706;2023-04-25T06:42:23;101331.59;;;11.01;58.27
32735;BME280;19112;51.076;3.706;2023-04-25T06:44:49;101334.22;;;11.01;57.50
32735;BME280;19112;51.076;3.706;2023-04-25T06:47:15;101279.03;;;10.78;58.13
32735;BME280;19112;51.076;3.706;2023-04-25T06:49:41;101300.81;;;10.97;58.13
32735;BME280;19112;51.076;3.706;2023-04-25T06:52:07;101367.22;;;11.16;57.54
32735;BME280;19112;51.076;3.706;2023-04-25T06:54:34;101207.66;;;10.01;57.22
32735;BME280;19112;51.076;3.706;2023-04-25T06:56:59;101344.75;;;10.58;57.22
32735;BME280;19112;51.076;3.706;2023-04-25T06:59:26;101301.56;;;10.29;57.86
32735;BME280;19112;51.076;3.706;2023-04-25T07:01:52;101361.19;;;10.75;58.20
32735;BME280;19112;51.076;3.706;2023-04-25T07:04:18;101330.28;;;10.68;58.12
32735;BME280;19112;51.076;3.706;2023-04-25T07:06:44;101345.28;;;10.49;58.57
32735;BME280;19112;51.076;3.706;2023-04-25T07:09:10;101285.22;;;10.15;58.96
32735;BME280;19112;51.076;3.706;2023-04-25T07:11:36;101404.88;;;10.94;59.34
32735;BME280;19112;51.076;3.706;2023-04-25T07:14:03;101400.78;;;11.23;58.79
32735;BME280;19112;51.076;3.706;2023-04-25T07:16:29;101248.66;;;10.62;57.74
32735;BME280;19112;51.076;3.706;2023-04-25T07:18:54;101338.78;;;11.06;56.86
32735;BME280;19112;51.076;3.706;2023-04-25T07:21:21;101417.38;;;11.67;56.41
32735;BME280;19112;51.076;3.706;2023-04-25T07:23:47;101377.13;;;11.23;55.86
32735;BME280;19112;51.076;3.706;2023-04-25T07:26:13;101421.22;;;11.30;56.35
32735;BME280;19112;51.076;3.706;2023-04-25T07:28:39;101357.81;;;10.78;56.30
32735;BME280;19112;51.076;3.706;2023-04-25T07:31:05;101410.38;;;11.22;56.68
32735;BME280;19112;51.076;3.706;2023-04-25T07:33:31;101444.22;;;11.36;56.00
32735;BME280;19112;51.076;3.706;2023-04-25T07:35:57;101273.69;;;10.54;54.86
32735;BME280;19112;51.076;3.706;2023-04-25T07:38:23;101309.03;;;10.62;53.56
32735;BME280;19112;51.076;3.706;2023-04-25T07:40:49;101379.94;;;11.27;52.72
32735;BME280;19112;51.076;3.706;2023-04-25T07:43:15;101348.09;;;11.20;53.27
32735;BME280;19112;51.076;3.706;2023-04-25T07:45:43;101293.28;;;10.84;53.43
32735;BME280;19112;51.076;3.706;2023-04-25T07:48:09;101428.97;;;11.72;53.39
32735;BME280;19112;51.076;3.706;2023-04-25T07:50:36;101393.84;;;11.47;53.38
32735;BME280;19112;51.076;3.706;2023-04-25T07:53:02;101430.56;;;11.91;53.00
32735;BME280;19112;51.076;3.706;2023-04-25T07:55:28;101411.72;;;12.02;52.32
32735;BME280;19112;51.076;3.706;2023-04-25T07:57:54;101436.50;;;12.33;52.33
32735;BME280;19112;51.076;3.706;2023-04-25T08:00:20;101359.75;;;11.97;51.68
32735;BME280;19112;51.076;3.706;2023-04-25T08:02:46;101343.88;;;11.71;52.68
32735;BME280;19112;51.076;3.706;2023-04-25T08:05:12;101456.34;;;12.23;51.47
32735;BME280;19112;51.076;3.706;2023-04-25T08:07:40;101462.16;;;11.91;52.50
32735;BME280;19112;51.076;3.706;2023-04-25T08:10:08;101343.53;;;11.38;53.06
32735;BME280;19112;51.076;3.706;2023-04-25T08:12:33;101463.28;;;11.75;52.94
32735;BME280;19112;51.076;3.706;2023-04-25T08:14:59;101425.84;;;11.60;53.50
32735;BME280;19112;51.076;3.706;2023-04-25T08:17:25;101426.94;;;11.87;52.30
32735;BME280;19112;51.076;3.706;2023-04-25T08:19:51;101429.19;;;11.55;51.43
32735;BME280;19112;51.076;3.706;2023-04-25T08:22:17;101477.28;;;11.96;51.83
32735;BME280;19112;51.076;3.706;2023-04-25T08:24:43;101421.09;;;11.49;53.15
32735;BME280;19112;51.076;3.706;2023-04-25T08:27:09;101366.84;;;11.29;52.93
32735;BME280;19112;51.076;3.706;2023-04-25T08:29:35;101302.13;;;11.09;50.41
32735;BME280;19112;51.076;3.706;2023-04-25T08:32:01;101403.78;;;11.78;50.54
32735;BME280;19112;51.076;3.706;2023-04-25T08:34:27;101341.31;;;11.49;49.31
32735;BME280;19112;51.076;3.706;2023-04-25T08:36:53;101313.78;;;11.39;47.89
32735;BME280;19112;51.076;3.706;2023-04-25T08:39:18;101404.91;;;11.61;47.46
32735;BME280;19112;51.076;3.706;2023-04-25T08:41:44;101178.06;;;10.04;47.99
32735;BME280;19112;51.076;3.706;2023-04-25T08:44:11;101505.84;;;12.10;49.12
32735;BME280;19112;51.076;3.706;2023-04-25T08:46:40;101460.84;;;12.03;48.54
32735;BME280;19112;51.076;3.706;2023-04-25T08:49:07;101427.72;;;12.09;47.97
32735;BME280;19112;51.076;3.706;2023-04-25T08:51:40;101498.56;;;12.50;46.01
32735;BME280;19112;51.076;3.706;2023-04-25T08:54:11;101449.00;;;12.64;46.79
32735;BME280;19112;51.076;3.706;2023-04-25T08:56:45;101469.59;;;12.76;46.12
32735;BME280;19112;51.076;3.706;2023-04-25T08:59:13;101483.03;;;12.83;45.34
32735;BME280;19112;51.076;3.706;2023-04-25T09:01:40;101464.22;;;12.73;45.97
32735;BME280;19112;51.076;3.706;2023-04-25T09:04:07;101353.50;;;11.71;47.04
32735;BME280;19112;51.076;3.706;2023-04-25T09:06:32;101411.78;;;11.58;49.29
32735;BME280;19112;51.076;3.706;2023-04-25T09:09:08;101390.72;;;11.13;56.06
32735;BME280;19112;51.076;3.706;2023-04-25T09:11:35;101401.22;;;10.90;58.01
32735;BME280;19112;51.076;3.706;2023-04-25T09:14:19;101514.16;;;11.32;58.94
32735;BME280;19112;51.076;3.706;2023-04-25T09:22:00;101571.50;;;11.41;58.79
32735;BME280;19112;51.076;3.706;2023-04-25T09:24:41;101571.59;;;11.44;58.40
32735;BME280;19112;51.076;3.706;2023-04-25T09:27:11;101444.69;;;10.42;58.29
32735;BME280;19112;51.076;3.706;2023-04-25T09:29:40;101507.47;;;10.76;57.17
32735;BME280;19112;51.076;3.706;2023-04-25T09:32:20;101565.59;;;11.05;56.17
32735;BME280;19112;51.076;3.706;2023-04-25T09:34:56;101488.78;;;10.70;56.26
32735;BME280;19112;51.076;3.706;2023-04-25T09:37:25;101454.28;;;10.82;56.17
32735;BME280;19112;51.076;3.706;2023-04-25T09:39:57;101523.72;;;11.51;55.56
32735;BME280;19112;51.076;3.706;2023-04-25T09:42:28;101454.22;;;11.23;54.34
32735;BME280;19112;51.076;3.706;2023-04-25T09:44:57;101534.22;;;11.94;53.00
32735;BME280;19112;51.076;3.706;2023-04-25T09:47:25;101448.63;;;11.82;53.44
32735;BME280;19112;51.076;3.706;2023-04-25T09:49:53;101542.16;;;11.96;50.55
32735;BME280;19112;51.076;3.706;2023-04-25T09:52:23;101596.69;;;12.45;51.37
32735;BME280;19112;51.076;3.706;2023-04-25T09:54:51;101556.81;;;12.12;51.52
32735;BME280;19112;51.076;3.706;2023-04-25T09:57:23;101539.75;;;12.02;49.77
32735;BME280;19112;51.076;3.706;2023-04-25T09:59:53;101479.91;;;11.74;50.04
32735;BME280;19112;51.076;3.706;2023-04-25T10:02:24;101621.28;;;12.45;48.20
32735;BME280;19112;51.076;3.706;2023-04-25T10:04:53;101550.19;;;11.99;48.84
32735;BME280;19112;51.076;3.706;2023-04-25T10:07:23;101278.78;;;10.71;48.76
32735;BME280;19112;51.076;3.706;2023-04-25T10:10:04;101415.06;;;11.30;49.00
32735;BME280;19112;51.076;3.706;2023-04-25T10:12:31;101625.53;;;13.14;49.61
32735;BME280;19112;51.076;3.706;2023-04-25T10:14:59;101512.41;;;12.21;47.93
32735;BME280;19112;51.076;3.706;2023-04-25T10:17:29;101612.56;;;12.24;48.51
32735;BME280;19112;51.076;3.706;2023-04-25T10:19:55;101613.50;;;12.72;48.50
32735;BME280;19112;51.076;3.706;2023-04-25T10:22:42;101594.16;;;12.48;48.83
32735;BME280;19112;51.076;3.706;2023-04-25T10:25:10;101545.78;;;12.22;49.06
32735;BME280;19112;51.076;3.706;2023-04-25T10:27:38;101621.41;;;12.96;49.24
32735;BME280;19112;51.076;3.706;2023-04-25T10:30:14;101572.34;;;13.25;49.21
32735;BME280;19112;51.076;3.706;2023-04-25T10:32:44;101561.56;;;13.19;50.17
32735;BME280;19112;51.076;3.706;2023-04-25T10:35:19;101344.63;;;12.15;49.88
32735;BME280;19112;51.076;3.706;2023-04-25T10:38:03;101629.28;;;13.98;48.86
32735;BME280;19112;51.076;3.706;2023-04-25T10:40:31;101523.06;;;13.23;48.38
32735;BME280;19112;51.076;3.706;2023-04-25T10:43:43;101331.72;;;12.23;48.59
32735;BME280;19112;51.076;3.706;2023-04-25T10:46:27;101630.81;;;14.19;48.37
32735;BME280;19112;51.076;3.706;2023-04-25T10:49:02;101392.78;;;12.64;48.67
32735;BME280;19112;51.076;3.706;2023-04-25T10:51:31;101524.56;;;13.16;46.95
32735;BME280;19112;51.076;3.706;2023-04-25T10:54:02;101591.81;;;13.54;47.20
32735;BME280;19112;51.076;3.706;2023-04-25T10:56:35;101639.97;;;13.74;47.63
32735;BME280;19112;51.076;3.706;2023-04-25T10:59:17;101611.59;;;13.69;45.05
32735;BME280;19112;51.076;3.706;2023-04-25T11:02:09;101629.28;;;13.44;43.96
32735;BME280;19112;51.076;3.706;2023-04-25T11:04:36;101647.41;;;13.35;43.89
32735;BME280;19112;51.076;3.706;2023-04-25T11:09:38;101562.00;;;13.31;45.05
32735;BME280;19112;51.076;3.706;2023-04-25T11:12:08;101600.63;;;13.82;44.51
32735;BME280;19112;51.076;3.706;2023-04-25T11:14:35;101545.72;;;13.18;44.10
32735;BME280;19112;51.076;3.706;2023-04-25T11:17:01;101503.59;;;12.68;44.13
32735;BME280;19112;51.076;3.706;2023-04-25T11:19:29;101426.91;;;12.61;44.33
32735;BME280;19112;51.076;3.706;2023-04-25T11:22:01;101378.09;;;12.45;43.98
32735;BME280;19112;51.076;3.706;2023-04-25T11:24:33;101610.00;;;14.01;42.06
32735;BME280;19112;51.076;3.706;2023-04-25T11:27:04;101619.78;;;14.03;41.70
32735;BME280;19112;51.076;3.706;2023-04-25T11:29:33;101619.13;;;14.39;41.08
32735;BME280;19112;51.076;3.706;2023-04-25T11:31:59;101420.09;;;12.93;41.67
32735;BME280;19112;51.076;3.706;2023-04-25T11:34:27;101583.16;;;13.58;42.92
32735;BME280;19112;51.076;3.706;2023-04-25T11:36:56;101611.88;;;13.76;43.96
32735;BME280;19112;51.076;3.706;2023-04-25T11:39:24;101477.81;;;13.10;45.06
32735;BME280;19112;51.076;3.706;2023-04-25T11:41:51;101562.81;;;13.29;44.94
32735;BME280;19112;51.076;3.706;2023-04-25T11:44:18;101605.09;;;13.57;45.24
32735;BME280;19112;51.076;3.706;2023-04-25T11:46:45;101601.09;;;13.97;45.99
32735;BME280;19112;51.076;3.706;2023-04-25T11:49:12;101562.84;;;13.84;43.82
32735;BME280;19112;51.076;3.706;2023-04-25T11:51:44;101657.56;;;14.58;43.85
32735;BME280;19112;51.076;3.706;2023-04-25T11:54:10;101577.78;;;13.84;41.52
32735;BME280;19112;51.076;3.706;2023-04-25T11:56:40;101639.03;;;14.28;42.85
32735;BME280;19112;51.076;3.706;2023-04-25T11:59:06;101545.75;;;13.45;42.54
32735;BME280;19112;51.076;3.706;2023-04-25T12:01:35;101622.25;;;13.45;42.98
32735;BME280;19112;51.076;3.706;2023-04-25T12:04:23;101604.50;;;13.66;44.23
32735;BME280;19112;51.076;3.706;2023-04-25T12:06:54;101597.66;;;13.46;43.01
32735;BME280;19112;51.076;3.706;2023-04-25T12:09:32;101606.75;;;13.54;43.77
32735;BME280;19112;51.076;3.706;2023-04-25T12:12:00;101603.94;;;13.49;44.68
32735;BME280;19112;51.076;3.706;2023-04-25T12:14:32;101583.34;;;13.14;44.65
32735;BME280;19112;51.076;3.706;2023-04-25T12:17:01;101583.16;;;13.07;43.91
32735;BME280;19112;51.076;3.706;2023-04-25T12:19:36;101574.53;;;13.13;43.83
32735;BME280;19112;51.076;3.706;2023-04-25T12:22:03;101370.84;;;12.38;43.69
32735;BME280;19112;51.076;3.706;2023-04-25T12:24:36;101521.69;;;13.10;44.00
32735;BME280;19112;51.076;3.706;2023-04-25T12:27:05;101635.13;;;14.16;41.26
32735;BME280;19112;51.076;3.706;2023-04-25T12:29:33;101583.56;;;14.28;41.58
32735;BME280;19112;51.076;3.706;2023-04-25T12:31:59;101633.66;;;14.53;41.05
32735;BME280;19112;51.076;3.706;2023-04-25T12:34:27;101585.13;;;13.93;40.69
32735;BME280;19112;51.076;3.706;2023-04-25T12:36:54;101637.28;;;14.28;40.71
32735;BME280;19112;51.076;3.706;2023-04-25T12:39:24;101520.47;;;14.08;39.93
32735;BME280;19112;51.076;3.706;2023-04-25T12:41:52;101438.03;;;13.30;41.85
32735;BME280;19112;51.076;3.706;2023-04-25T12:44:20;101537.41;;;13.86;42.30
32735;BME280;19112;51.076;3.706;2023-04-25T12:46:47;101629.97;;;14.48;42.24
32735;BME280;19112;51.076;3.706;2023-04-25T12:49:14;101610.38;;;14.11;42.99
32735;BME280;19112;51.076;3.706;2023-04-25T12:51:40;101407.38;;;13.06;42.65
32735;BME280;19112;51.076;3.706;2023-04-25T12:54:07;101611.38;;;13.88;43.72
32735;BME280;19112;51.076;3.706;2023-04-25T12:56:34;101685.19;;;13.85;43.55
32735;BME280;19112;51.076;3.706;2023-04-25T12:59:00;101593.66;;;13.06;44.06
32735;BME280;19112;51.076;3.706;2023-04-25T13:01:28;101653.00;;;13.70;44.17
32735;BME280;19112;51.076;3.706;2023-04-25T13:03:54;101691.81;;;13.74;43.53
32735;BME280;19112;51.076;3.706;2023-04-25T13:06:21;101524.72;;;12.70;44.31